Time;durP1;ratioP1;P1;durP2;ratioP2;P2;SDS_P1;SDS_P2;PMS_P1;PMS_P2;Temp;Humidity;BMP_temperature;BMP_pressure;BME280_temperature;BME280_humidity;BME280_pressure;Samples;Min_cycle;Max_cycle;Signal;HPM_P1;HPM_P2
2023/01/14 00:01:36;;;;;;;;;36.00;33.25;;;;;9.41;56.61;99570.47;5116848;27;8851;-79
2023/01/14 00:04:06;;;;;;;;;39.50;34.00;;;;;9.36;56.42;99573.94;5133501;27;9461;-81
2023/01/14 00:06:36;;;;;;;;;47.75;42.25;;;;;9.26;56.42;99571.28;5149802;27;9648;-79
2023/01/14 00:09:06;;;;;;;;;40.50;33.00;;;;;9.16;57.15;99571.22;5116537;27;8835;-78
2023/01/14 00:11:48;;;;;;;;;42.25;39.50;;;;;9.08;57.60;99578.13;5113516;27;8841;-79
2023/01/14 00:14:21;;;;;;;;;42.75;38.25;;;;;9.35;57.21;99580.00;5096725;27;8845;-82
2023/01/14 00:16:50;;;;;;;;;43.75;37.75;;;;;9.43;56.90;99582.63;5096721;27;8983;-81
2023/01/14 00:19:22;;;;;;;;;42.75;39.25;;;;;9.61;55.80;99589.66;5078664;27;8861;-80
2023/01/14 00:21:51;;;;;;;;;42.50;39.00;;;;;9.65;55.46;99590.56;5063176;27;8895;-79
2023/01/14 00:24:22;;;;;;;;;46.00;40.25;;;;;9.56;56.09;99592.25;5135476;27;9708;-81
2023/01/14 00:26:52;;;;;;;;;35.50;29.75;;;;;9.74;55.14;99601.00;5121014;27;8873;-80
2023/01/14 00:29:26;;;;;;;;;44.50;41.50;;;;;9.84;55.41;99597.56;5092182;27;9599;-81
2023/01/14 00:31:55;;;;;;;;;34.00;30.50;;;;;10.04;54.91;99604.59;5062321;27;8849;-82
2023/01/14 00:34:27;;;;;;;;;34.00;30.00;;;;;10.00;54.56;99610.63;5075781;28;8870;-80
2023/01/14 00:36:56;;;;;;;;;38.00;32.75;;;;;10.14;54.40;99603.72;5074043;28;9565;-82
2023/01/14 00:39:26;;;;;;;;;46.50;38.75;;;;;10.14;54.01;99604.59;5074075;28;8858;-81
2023/01/14 00:41:55;;;;;;;;;43.00;39.00;;;;;10.20;54.15;99608.06;5056514;28;8900;-80
2023/01/14 00:44:24;;;;;;;;;42.50;33.50;;;;;10.30;53.41;99600.31;5073570;28;8908;-81
2023/01/14 00:46:53;;;;;;;;;40.25;36.00;;;;;10.37;53.62;99603.78;5091404;28;8876;-80
2023/01/14 00:49:26;;;;;;;;;39.50;36.25;;;;;10.43;52.88;99609.00;5076968;28;8897;-80
2023/01/14 00:51:55;;;;;;;;;42.75;38.00;;;;;10.34;53.30;99606.41;5098851;28;8850;-81
2023/01/14 00:54:23;;;;;;;;;48.00;41.33;;;;;10.40;53.15;99602.94;5077414;28;8849;-81
2023/01/14 00:56:52;;;;;;;;;35.25;32.50;;;;;10.36;52.96;99606.38;5074415;28;8826;-81
2023/01/14 00:59:23;;;;;;;;;42.00;35.50;;;;;10.31;52.95;99606.38;5091138;28;8846;-79
2023/01/14 01:01:54;;;;;;;;;37.75;34.50;;;;;10.26;54.09;99608.94;5089454;28;8850;-80
2023/01/14 01:04:24;;;;;;;;;46.00;37.25;;;;;10.36;53.30;99612.50;5070453;28;8869;-80
2023/01/14 01:06:54;;;;;;;;;34.75;33.25;;;;;10.37;53.52;99619.44;5095663;27;8829;-79
2023/01/14 01:09:22;;;;;;;;;34.00;25.50;;;;;10.12;53.85;99613.28;5112819;27;8834;-78
2023/01/14 01:11:55;;;;;;;;;39.25;34.75;;;;;10.23;53.75;99618.50;5061269;27;8841;-79
2023/01/14 01:14:25;;;;;;;;;40.25;36.50;;;;;10.25;53.39;99620.25;5129766;27;8892;-79
2023/01/14 01:16:53;;;;;;;;;35.00;32.75;;;;;10.29;53.82;99626.34;5095011;27;8833;-81
2023/01/14 01:19:22;;;;;;;;;42.25;37.25;;;;;10.36;53.22;99622.91;5094914;27;8845;-78
2023/01/14 01:21:51;;;;;;;;;24.25;22.00;;;;;10.34;53.19;99620.31;5099273;27;8857;-81
2023/01/14 01:24:22;;;;;;;;;41.75;36.00;;;;;10.31;52.70;99617.69;5112089;27;8857;-81
2023/01/14 01:26:51;;;;;;;;;43.75;38.75;;;;;10.42;53.29;99627.28;5130387;27;8869;-83
2023/01/14 01:29:19;;;;;;;;;47.50;40.75;;;;;10.40;53.08;99626.41;5099047;27;9029;-82
2023/01/14 01:31:49;;;;;;;;;51.25;42.75;;;;;9.83;53.89;99634.91;5150681;27;8843;-81
2023/01/14 01:34:17;;;;;;;;;40.25;38.00;;;;;10.00;53.58;99636.66;5132293;27;8820;-81
2023/01/14 01:36:46;;;;;;;;;41.50;36.25;;;;;9.90;53.42;99635.78;5114977;27;8843;-80
2023/01/14 01:39:15;;;;;;;;;38.50;37.00;;;;;9.91;53.77;99645.34;5132289;27;8910;-82
2023/01/14 01:41:45;;;;;;;;;39.25;37.75;;;;;9.92;53.81;99647.06;5077348;27;8884;-81
2023/01/14 01:44:51;;;;;;;;;37.25;36.75;;;;;10.03;53.46;99653.19;5094166;27;9567;-79
2023/01/14 01:47:23;;;;;;;;;46.00;39.50;;;;;10.06;53.51;99655.81;5110649;27;8859;-82
2023/01/14 01:49:52;;;;;;;;;42.75;38.50;;;;;10.17;53.69;99652.34;5114648;27;8859;-79
2023/01/14 01:52:26;;;;;;;;;46.50;38.00;;;;;10.32;53.24;99655.03;5149762;27;9616;-81
2023/01/14 01:55:01;;;;;;;;;41.50;34.50;;;;;10.40;53.29;99658.53;5128334;27;8917;-81
2023/01/14 01:57:32;;;;;;;;;45.25;35.50;;;;;10.39;52.73;99659.41;5110889;27;8837;-78
2023/01/14 02:00:06;;;;;;;;;47.75;37.50;;;;;10.45;52.26;99656.81;5094163;27;8838;-77
2023/01/14 02:02:48;;;;;;;;;46.25;37.00;;;;;10.51;52.94;99669.00;5146653;27;8860;-80
2023/01/14 02:05:17;;;;;;;;;40.75;38.25;;;;;10.55;52.96;99670.75;5113831;27;8863;-80
2023/01/14 02:07:46;;;;;;;;;40.25;38.75;;;;;10.61;52.14;99662.06;5149731;27;8977;-80
2023/01/14 02:10:16;;;;;;;;;40.80;38.00;;;;;10.69;52.25;99662.91;5115102;27;8847;-78
2023/01/14 02:13:09;;;;;;;;;45.75;39.75;;;;;10.88;52.41;99664.66;5131441;27;9745;-81
2023/01/14 02:15:49;;;;;;;;;42.50;36.75;;;;;10.71;51.52;99666.41;5114713;27;8843;-80
2023/01/14 02:18:38;;;;;;;;;42.00;37.75;;;;;10.54;52.00;99669.84;5079293;27;8819;-80
2023/01/14 02:21:17;;;;;;;;;39.00;35.75;;;;;10.56;52.72;99672.47;5130243;27;8843;-80
2023/01/14 02:24:21;;;;;;;;;40.00;36.75;;;;;10.82;52.18;99669.03;5131030;27;8903;-80
2023/01/14 02:27:29;;;;;;;;;42.00;35.00;;;;;10.91;51.63;99664.69;5035435;28;8861;-78
2023/01/14 02:30:28;;;;;;;;;43.00;40.25;;;;;10.96;51.18;99663.78;5010876;28;8999;-78
2023/01/14 02:33:05;;;;;;;;;44.25;39.00;;;;;10.91;51.59;99659.44;5001142;28;9644;-80
2023/01/14 02:35:43;;;;;;;;;44.50;39.25;;;;;10.88;51.67;99656.84;5008263;28;8866;-76
2023/01/14 02:38:25;;;;;;;;;46.50;41.00;;;;;10.88;51.80;99664.66;5036331;28;8887;-79
2023/01/14 02:41:02;;;;;;;;;47.00;42.00;;;;;10.81;52.39;99662.06;4965671;28;8851;-80
2023/01/14 02:46:34;;;;;;;;;42.25;37.75;;;;;10.71;51.57;99656.81;5028100;28;8849;-81
2023/01/14 02:49:10;;;;;;;;;39.25;35.50;;;;;10.61;51.84;99662.06;5022638;28;8857;-81
2023/01/14 02:51:44;;;;;;;;;51.00;43.75;;;;;10.47;52.07;99665.50;4947544;28;8844;-81
2023/01/14 02:54:13;;;;;;;;;47.25;39.75;;;;;10.47;51.92;99667.22;5008320;28;8867;-78
2023/01/14 02:56:42;;;;;;;;;43.50;39.25;;;;;10.52;52.75;99666.38;5025056;28;9465;-80
2023/01/14 02:59:35;;;;;;;;;43.25;39.00;;;;;10.63;52.27;99657.72;5026048;28;9582;-83
2023/01/14 03:02:22;;;;;;;;;38.75;36.25;;;;;10.65;52.57;99663.78;5028696;28;8971;-80
2023/01/14 03:05:05;;;;;;;;;44.00;37.00;;;;;10.72;52.45;99671.63;5030340;28;8863;-80
2023/01/14 03:07:44;;;;;;;;;42.50;38.75;;;;;10.78;52.17;99660.31;5099278;27;8957;-80
2023/01/14 03:10:24;;;;;;;;;48.75;40.75;;;;;10.80;52.18;99663.81;5110014;27;8845;-79
2023/01/14 03:13:08;;;;;;;;;51.00;42.50;;;;;10.78;51.40;99657.72;5110887;27;8861;-79
2023/01/14 03:15:47;;;;;;;;;50.50;42.00;;;;;10.57;51.89;99662.91;5110448;27;8854;-78
2023/01/14 03:18:23;;;;;;;;;45.50;40.25;;;;;10.63;51.96;99666.41;5113214;27;8838;-78
2023/01/14 03:20:56;;;;;;;;;43.50;38.00;;;;;10.52;51.63;99668.13;5114419;27;8838;-79
2023/01/14 03:23:29;;;;;;;;;42.25;39.00;;;;;10.41;52.04;99662.00;5114306;27;8845;-79
2023/01/14 03:26:00;;;;;;;;;48.00;39.50;;;;;10.44;52.20;99669.84;5114959;27;8883;-78
2023/01/14 03:28:33;;;;;;;;;48.75;41.00;;;;;10.32;52.09;99660.25;5134242;27;8847;-79
2023/01/14 03:31:08;;;;;;;;;54.75;48.00;;;;;10.34;52.19;99662.00;5134111;27;8924;-79
2023/01/14 03:33:48;;;;;;;;;44.50;39.00;;;;;10.09;52.92;99671.47;5116916;27;8849;-76
2023/01/14 03:36:18;;;;;;;;;46.00;40.25;;;;;10.06;53.29;99673.19;5133974;27;8863;-79
2023/01/14 03:38:51;;;;;;;;;26.25;23.25;;;;;9.95;53.89;99673.13;5133955;27;9549;-77
2023/01/14 03:44:16;;;;;;;;;46.75;42.00;;;;;10.15;53.07;99681.00;5142530;27;8841;-78
2023/01/14 03:46:45;;;;;;;;;49.25;41.25;;;;;10.25;52.76;99684.53;5113527;27;8868;-78
2023/01/14 03:49:15;;;;;;;;;46.25;41.75;;;;;10.30;52.35;99682.78;5113257;27;8845;-79
2023/01/14 03:51:54;;;;;;;;;46.75;39.00;;;;;10.22;53.01;99680.16;5131846;27;8861;-81
2023/01/14 03:54:28;;;;;;;;;48.25;38.50;;;;;10.17;52.59;99681.91;5113654;27;8845;-79
2023/01/14 03:57:05;;;;;;;;;48.50;40.25;;;;;10.05;52.98;99687.94;5113244;27;8845;-79
2023/01/14 03:59:45;;;;;;;;;40.00;38.00;;;;;9.94;53.13;99687.00;5047765;27;8857;-79
2023/01/14 04:02:15;;;;;;;;;35.50;31.25;;;;;9.76;53.64;99687.81;5085422;27;8830;-81
2023/01/14 04:04:47;;;;;;;;;38.75;34.00;;;;;9.57;54.47;99694.66;5130461;27;8964;-79
2023/01/14 04:07:17;;;;;;;;;30.50;26.75;;;;;9.73;54.09;99693.00;5114455;27;8871;-80
2023/01/14 04:09:46;;;;;;;;;38.50;33.00;;;;;9.87;53.88;99698.28;5129601;27;8853;-78
2023/01/14 04:12:14;;;;;;;;;41.75;37.75;;;;;10.04;53.44;99698.38;5112376;27;8853;-80
2023/01/14 04:17:29;;;;;;;;;36.25;34.00;;;;;10.32;52.69;99701.94;5104009;27;8893;-78
2023/01/14 04:19:59;;;;;;;;;40.75;37.75;;;;;10.43;53.01;99708.06;5129521;27;8856;-77
2023/01/14 04:22:28;;;;;;;;;41.50;40.25;;;;;10.40;52.79;99702.88;5134872;27;8845;-81
2023/01/14 04:24:57;;;;;;;;;39.75;38.00;;;;;10.45;52.59;99706.34;5137113;27;8857;-78
2023/01/14 04:27:25;;;;;;;;;46.75;40.00;;;;;10.51;52.51;99711.56;5132400;27;8964;-79
2023/01/14 04:29:54;;;;;;;;;57.75;46.75;;;;;10.59;52.07;99724.63;5061800;27;8845;-79
2023/01/14 04:32:23;;;;;;;;;65.25;55.25;;;;;10.49;52.90;99733.28;5113490;27;8871;-80
2023/01/14 04:34:52;;;;;;;;;63.00;50.25;;;;;10.57;53.04;99741.13;5086896;27;8862;-79
2023/01/14 04:37:21;;;;;;;;;45.25;42.75;;;;;10.53;52.76;99741.13;5116583;27;8855;-79
2023/01/14 04:39:52;;;;;;;;;56.25;45.25;;;;;10.67;52.45;99751.59;5117042;27;8877;-80
2023/01/14 04:42:31;;;;;;;;;52.00;45.25;;;;;10.73;52.76;99751.59;5138523;27;8829;-78
2023/01/14 04:45:01;;;;;;;;;50.00;42.00;;;;;10.78;52.37;99749.00;5057179;28;8923;-78
2023/01/14 04:47:31;;;;;;;;;58.00;46.50;;;;;10.75;52.12;99745.53;5070541;28;8953;-82
2023/01/14 04:50:30;;;;;;;;;52.75;43.00;;;;;10.62;53.32;99757.66;5054168;28;8841;-78
2023/01/14 04:52:52;;;;;;;;;53.25;46.50;;;;;10.71;52.27;99747.25;5044264;28;8876;-79
2023/01/14 04:55:21;;;;;;;;;50.25;44.25;;;;;10.56;52.43;99757.66;5070551;28;9679;-77
2023/01/14 04:57:50;;;;;;;;;49.50;43.50;;;;;10.51;52.60;99749.81;5070367;28;8876;-79
2023/01/14 05:00:19;;;;;;;;;55.25;43.00;;;;;10.48;52.50;99752.41;5022692;28;9673;-81
2023/01/14 05:02:48;;;;;;;;;46.00;40.00;;;;;10.52;52.84;99754.16;5070461;28;8856;-80
2023/01/14 05:05:17;;;;;;;;;80.25;60.50;;;;;10.56;52.86;99757.66;5086967;28;9058;-80
2023/01/14 05:07:46;;;;;;;;;73.25;58.00;;;;;10.62;52.85;99755.91;5086061;28;8876;-79
2023/01/14 05:10:16;;;;;;;;;62.75;50.00;;;;;10.73;53.03;99761.16;5053356;28;8865;-78
2023/01/14 05:12:56;;;;;;;;;57.75;46.50;;;;;10.76;52.86;99768.16;5072757;28;8861;-79
2023/01/14 05:15:27;;;;;;;;;43.75;38.75;;;;;10.81;52.68;99759.47;5098624;27;8837;-81
2023/01/14 05:17:56;;;;;;;;;58.00;45.25;;;;;10.87;52.72;99763.81;5113842;27;8879;-82
2023/01/14 05:20:27;;;;;;;;;56.75;44.50;;;;;10.89;52.49;99765.56;5111623;27;8849;-80
2023/01/14 05:23:00;;;;;;;;;62.75;46.75;;;;;11.01;52.37;99766.44;5111807;27;8853;-82
2023/01/14 05:25:32;;;;;;;;;61.25;50.25;;;;;11.03;52.24;99773.41;5119949;27;8931;-79
2023/01/14 05:28:02;;;;;;;;;48.75;44.75;;;;;10.84;51.98;99780.31;5150717;27;8859;-80
2023/01/14 05:30:32;;;;;;;;;47.75;42.50;;;;;10.69;51.86;99775.06;5124811;27;8865;-79
2023/01/14 05:33:00;;;;;;;;;50.50;45.00;;;;;10.81;52.00;99761.19;5090875;28;8857;-79
2023/01/14 05:35:29;;;;;;;;;58.75;49.25;;;;;10.86;51.88;99759.47;5124765;27;8852;-80
2023/01/14 05:37:58;;;;;;;;;57.50;46.75;;;;;10.78;51.75;99771.63;5091152;28;8841;-80
2023/01/14 05:40:26;;;;;;;;;53.00;44.75;;;;;10.52;52.25;99773.28;5104608;28;8925;-80
2023/01/14 05:45:51;;;;;;;;;47.00;40.25;;;;;10.06;54.08;99774.81;5070849;28;9652;-80
2023/01/14 05:48:22;;;;;;;;;61.25;45.00;;;;;10.05;53.81;99779.13;5087861;28;8859;-83
2023/01/14 05:50:53;;;;;;;;;43.75;42.00;;;;;10.09;53.91;99773.09;5089324;28;8852;-79
2023/01/14 05:53:22;;;;;;;;;55.00;45.50;;;;;10.22;54.11;99766.16;5091222;28;8848;-80
2023/01/14 05:55:53;;;;;;;;;60.75;47.50;;;;;10.33;53.79;99761.06;5095657;28;8859;-81
2023/01/14 05:58:23;;;;;;;;;54.50;43.00;;;;;10.33;53.47;99766.25;5111824;28;9380;-77
2023/01/14 06:06:28;;;;;;;;;59.25;48.25;;;;;6.35;67.93;99859.03;5061811;28;9630;-78
2023/01/14 06:08:58;;;;;;;;;56.00;45.50;;;;;7.30;64.44;99844.44;5093965;28;8914;-81
2023/01/14 06:11:32;;;;;;;;;49.50;43.25;;;;;7.89;62.77;99837.59;5096367;28;8891;-81
2023/01/14 06:14:03;;;;;;;;;52.50;43.50;;;;;7.67;62.88;99859.75;5092233;28;8945;-78
2023/01/14 06:16:39;;;;;;;;;54.50;45.00;;;;;7.57;63.05;99861.31;5093089;28;9609;-78
2023/01/14 06:19:09;;;;;;;;;55.25;47.00;;;;;7.98;62.82;99853.31;5093585;28;8857;-78
2023/01/14 06:21:40;;;;;;;;;54.50;47.25;;;;;8.50;61.29;99851.47;5105662;28;8867;-79
2023/01/14 06:24:09;;;;;;;;;45.50;40.00;;;;;8.85;60.36;99842.38;5089556;28;8871;-79
2023/01/14 06:26:38;;;;;;;;;57.75;48.00;;;;;9.12;60.56;99836.56;5103842;28;8880;-78
2023/01/14 06:29:12;;;;;;;;;45.75;40.00;;;;;9.20;60.32;99818.44;5110147;27;8898;-79
2023/01/14 06:31:42;;;;;;;;;53.00;42.00;;;;;9.31;58.99;99820.25;5130144;27;8842;-80
2023/01/14 06:34:11;;;;;;;;;49.50;44.25;;;;;9.53;58.30;99820.47;5112982;27;8854;-79
2023/01/14 06:36:40;;;;;;;;;64.75;50.75;;;;;9.39;58.25;99819.47;5112934;27;8894;-79
2023/01/14 06:39:09;;;;;;;;;60.00;47.00;;;;;9.22;59.10;99824.50;5110473;27;8894;-78
2023/01/14 06:41:38;;;;;;;;;65.75;53.75;;;;;9.34;59.00;99825.50;5126030;27;8976;-78
2023/01/14 06:44:07;;;;;;;;;65.50;53.00;;;;;9.51;59.00;99825.66;5092581;27;8830;-80
2023/01/14 06:46:37;;;;;;;;;66.25;51.00;;;;;9.71;58.83;99830.13;5125752;27;8841;-80
2023/01/14 06:49:06;;;;;;;;;41.25;28.75;;;;;9.68;57.81;99823.19;5089651;27;8846;-77
2023/01/14 06:51:35;;;;;;;;;61.25;50.25;;;;;9.43;58.45;99827.28;5128899;27;8829;-79
2023/01/14 06:54:03;;;;;;;;;68.50;54.00;;;;;9.67;57.59;99829.22;5116402;27;8861;-80
2023/01/14 06:56:34;;;;;;;;;69.25;55.00;;;;;9.87;57.44;99824.19;5135379;27;8839;-78
2023/01/14 06:59:02;;;;;;;;;66.50;54.50;;;;;9.62;57.34;99825.75;5133766;27;8856;-81
2023/01/14 07:01:31;;;;;;;;;65.75;54.75;;;;;9.60;57.88;99831.78;5136381;27;8911;-79
2023/01/14 07:04:02;;;;;;;;;70.25;56.75;;;;;9.70;57.61;99850.09;5142837;27;8849;-79
2023/01/14 07:06:31;;;;;;;;;65.25;53.50;;;;;9.18;59.03;99860.91;5090862;28;8869;-79
2023/01/14 07:08:59;;;;;;;;;76.50;58.75;;;;;9.52;58.15;99866.44;5090827;28;9717;-79
2023/01/14 07:11:28;;;;;;;;;68.75;57.00;;;;;9.64;58.29;99859.59;5057817;28;8845;-79
2023/01/14 07:13:57;;;;;;;;;74.00;60.25;;;;;9.41;58.84;99869.78;5041496;28;9630;-78
2023/01/14 07:16:25;;;;;;;;;71.25;55.50;;;;;9.73;58.33;99859.66;5091988;28;8861;-80
2023/01/14 07:18:54;;;;;;;;;81.50;61.75;;;;;9.90;58.18;99863.25;5095007;28;8936;-81
2023/01/14 07:21:25;;;;;;;;;77.25;60.75;;;;;10.09;58.05;99861.69;5092385;28;8927;-80
2023/01/14 07:23:57;;;;;;;;;69.00;57.00;;;;;9.52;58.80;99874.22;5053208;28;8883;-78
2023/01/14 07:26:26;;;;;;;;;77.75;61.50;;;;;9.36;60.02;99875.84;5003354;28;9014;-79
2023/01/14 07:28:55;;;;;;;;;83.67;66.33;;;;;9.82;59.83;99864.94;5036757;28;8887;-79
2023/01/14 07:31:24;;;;;;;;;83.67;66.67;;;;;10.01;59.42;99855.53;5051448;28;9189;-80
2023/01/14 07:33:53;;;;;;;;;75.25;62.75;;;;;10.11;58.68;99872.97;5053333;28;10161;-80
2023/01/14 07:36:22;;;;;;;;;72.75;58.00;;;;;10.29;58.43;99884.38;5031908;28;8951;-80
2023/01/14 07:38:52;;;;;;;;;79.00;61.75;;;;;9.51;59.67;99895.06;5012928;28;8860;-81
2023/01/14 07:41:22;;;;;;;;;78.25;59.00;;;;;9.65;59.29;99892.59;4993911;28;9596;-80
2023/01/14 07:43:50;;;;;;;;;76.25;59.50;;;;;9.98;58.96;99886.78;5010921;28;8858;-81
2023/01/14 07:46:19;;;;;;;;;75.00;60.25;;;;;10.22;58.06;99885.19;4995042;28;8858;-81
2023/01/14 07:48:48;;;;;;;;;76.00;58.50;;;;;10.37;57.86;99905.31;5011360;28;8951;-79
2023/01/14 07:51:20;;;;;;;;;77.00;61.00;;;;;9.07;60.69;99913.69;5001912;28;8917;-80
2023/01/14 07:53:49;;;;;;;;;80.75;61.75;;;;;9.35;61.58;99907.03;4981066;28;8839;-80
2023/01/14 07:56:19;;;;;;;;;80.75;63.25;;;;;9.83;60.23;99899.66;5000538;28;8858;-79
2023/01/14 07:58:48;;;;;;;;;78.33;60.67;;;;;9.69;59.69;99904.75;4978056;28;8851;-80
2023/01/14 08:01:18;;;;;;;;;77.50;63.25;;;;;8.60;63.15;99922.66;5001775;28;8929;-78
2023/01/14 08:03:47;;;;;;;;;76.75;57.50;;;;;9.31;61.32;99915.69;4997598;28;8890;-80
2023/01/14 08:06:16;;;;;;;;;69.50;56.75;;;;;9.74;60.42;99913.50;5022809;28;8872;-80
2023/01/14 08:08:44;;;;;;;;;76.75;62.00;;;;;9.59;60.16;99915.97;4980040;28;8910;-80
2023/01/14 08:11:13;;;;;;;;;77.33;61.33;;;;;9.43;61.10;99925.34;5024235;28;8888;-78
2023/01/14 08:13:43;;;;;;;;;79.25;62.75;;;;;9.72;60.22;99934.31;5087949;27;8961;-80
2023/01/14 08:16:13;;;;;;;;;77.00;61.75;;;;;9.08;62.34;99931.03;5095671;27;8840;-78
2023/01/14 08:18:42;;;;;;;;;75.00;59.25;;;;;9.24;61.51;99935.56;5127576;27;8868;-79
2023/01/14 08:21:11;;;;;;;;;72.50;58.50;;;;;8.11;65.70;99948.75;5110491;27;8957;-80
2023/01/14 08:23:40;;;;;;;;;76.25;58.50;;;;;7.80;66.86;99956.00;5079824;28;8859;-79
2023/01/14 08:26:11;;;;;;;;;71.50;57.75;;;;;8.19;65.83;99952.34;5103919;28;8831;-80
2023/01/14 08:28:41;;;;;;;;;75.25;57.25;;;;;8.83;64.48;99948.06;5102292;27;8900;-80
2023/01/14 08:31:13;;;;;;;;;67.25;53.25;;;;;8.84;63.20;99958.47;5127506;27;8876;-81
2023/01/14 08:33:44;;;;;;;;;71.50;57.00;;;;;9.24;62.18;99947.69;5111182;27;8908;-80
2023/01/14 08:36:14;;;;;;;;;71.00;57.00;;;;;9.66;61.68;99951.59;5111365;27;9478;-80
2023/01/14 08:38:48;;;;;;;;;71.00;56.25;;;;;9.12;62.19;99951.03;5104834;27;9624;-80
2023/01/14 08:41:18;;;;;;;;;70.75;57.75;;;;;9.51;61.68;99957.56;5128872;27;8835;-80
2023/01/14 08:43:49;;;;;;;;;69.00;56.50;;;;;9.95;61.07;99952.75;5098662;27;8851;-81
2023/01/14 08:46:20;;;;;;;;;76.50;59.00;;;;;10.26;60.65;99959.94;5106033;27;8820;-80
2023/01/14 08:48:49;;;;;;;;;55.75;46.00;;;;;10.44;59.11;99960.09;5090882;27;8948;-82
2023/01/14 08:51:18;;;;;;;;;68.00;55.00;;;;;10.67;58.79;99959.38;5106977;27;8927;-79
2023/01/14 08:53:47;;;;;;;;;74.00;56.50;;;;;10.80;58.29;99963.78;5103597;28;9688;-80
2023/01/14 08:56:16;;;;;;;;;73.50;58.25;;;;;11.06;57.73;99966.53;5087553;28;9587;-79
2023/01/14 08:58:45;;;;;;;;;69.25;56.00;;;;;11.31;57.36;99966.63;5088087;28;8875;-81
2023/01/14 09:01:15;;;;;;;;;71.50;58.00;;;;;11.53;57.66;99957.13;5086644;28;8852;-80
2023/01/14 09:03:46;;;;;;;;;72.25;57.75;;;;;11.17;55.88;99973.50;5087710;28;8876;-81
2023/01/14 09:06:16;;;;;;;;;66.25;55.00;;;;;11.25;56.99;99971.84;5070815;28;8916;-81
2023/01/14 09:17:10;;;;;;;;;76.50;62.00;;;;;11.73;56.64;99962.34;5071297;28;9565;-82
2023/01/14 09:19:45;;;;;;;;;75.50;58.75;;;;;11.97;55.55;99969.38;5071982;28;8847;-82
2023/01/14 09:22:18;;;;;;;;;66.00;52.75;;;;;12.06;55.55;99974.63;5106106;28;8890;-80
2023/01/14 09:24:47;;;;;;;;;77.00;60.75;;;;;12.17;55.48;99972.00;5106237;28;9006;-82
2023/01/14 09:27:16;;;;;;;;;58.25;50.25;;;;;12.00;55.01;99966.78;5088327;28;8864;-79
2023/01/14 09:29:45;;;;;;;;;79.25;60.50;;;;;12.16;55.54;99964.19;5100170;27;8878;-80
2023/01/14 09:32:15;;;;;;;;;72.00;58.25;;;;;12.25;54.51;99965.03;5120200;27;8836;-82
2023/01/14 09:34:49;;;;;;;;;76.00;60.25;;;;;12.42;55.03;99956.28;5128933;27;8837;-82
2023/01/14 09:37:20;;;;;;;;;78.00;60.50;;;;;12.57;54.96;99958.00;5095266;27;8845;-82
2023/01/14 09:39:50;;;;;;;;;66.50;51.50;;;;;12.61;54.35;99958.00;5134344;27;8866;-82
2023/01/14 09:42:27;;;;;;;;;80.50;62.00;;;;;12.83;54.09;99961.41;5117883;27;8841;-80
2023/01/14 09:45:04;;;;;;;;;77.50;61.00;;;;;11.89;55.06;99965.88;5129563;27;8854;-83
2023/01/14 09:47:33;;;;;;;;;84.00;64.00;;;;;10.90;58.12;99970.78;5108076;27;8855;-74
2023/01/14 09:50:05;;;;;;;;;79.75;63.00;;;;;10.36;60.25;99969.63;5100236;27;9035;-77
2023/01/14 09:52:52;;;;;;;;;72.75;58.75;;;;;10.54;59.31;99972.31;5083036;27;8814;-79
2023/01/14 09:55:29;;;;;;;;;74.75;60.00;;;;;11.12;58.78;99973.50;5110640;27;8849;-78
2023/01/14 09:58:04;;;;;;;;;74.50;59.50;;;;;10.29;60.88;99973.00;5095461;27;8834;-79
2023/01/14 10:00:41;;;;;;;;;72.00;59.00;;;;;10.12;62.08;99971.13;5127487;27;8849;-78
2023/01/14 10:03:24;;;;;;;;;80.75;59.25;;;;;10.78;60.38;99969.88;5093614;27;9649;-79
2023/01/14 10:06:02;;;;;;;;;78.25;62.00;;;;;10.78;60.28;99967.25;5086983;27;9147;-78
2023/01/14 10:08:37;;;;;;;;;70.00;52.75;;;;;9.81;62.10;99972.59;5108170;27;8858;-79
2023/01/14 10:11:08;;;;;;;;;81.50;61.00;;;;;10.61;60.39;99964.56;5077939;27;8979;-77
2023/01/14 10:13:41;;;;;;;;;77.25;61.75;;;;;10.66;60.10;99961.13;5129672;27;8820;-77
2023/01/14 10:16:14;;;;;;;;;73.75;59.50;;;;;10.71;60.45;99964.59;5067767;28;8874;-79
2023/01/14 10:18:51;;;;;;;;;77.50;59.50;;;;;10.89;59.18;99958.63;5067780;28;8865;-76
2023/01/14 10:21:28;;;;;;;;;82.25;61.00;;;;;10.15;60.69;99957.22;5073941;28;8874;-78
2023/01/14 10:23:58;;;;;;;;;76.25;61.00;;;;;9.05;65.63;99957.88;5031121;28;8861;-77
2023/01/14 10:26:32;;;;;;;;;79.00;64.00;;;;;8.97;65.85;99949.97;5050659;28;8838;-78
2023/01/14 10:29:11;;;;;;;;;84.00;65.00;;;;;9.54;65.23;99960.16;5083803;28;8866;-78
2023/01/14 10:31:44;;;;;;;;;84.33;66.00;;;;;9.14;65.31;99947.59;5071744;28;8852;-77
2023/01/14 10:34:17;;;;;;;;;83.50;64.75;;;;;9.12;65.64;99957.09;5079027;28;9756;-77
2023/01/14 10:36:49;;;;;;;;;81.00;65.50;;;;;8.78;66.86;99958.41;5068914;28;8968;-81
2023/01/14 10:39:18;;;;;;;;;89.00;69.67;;;;;8.78;67.70;99955.81;5058131;28;8856;-79
2023/01/14 10:41:49;;;;;;;;;85.00;65.67;;;;;9.31;66.53;99950.38;5058701;28;9222;-79
2023/01/14 10:44:23;;;;;;;;;83.00;65.50;;;;;9.73;64.00;99949.09;5081214;28;9086;-78
2023/01/14 10:46:54;;;;;;;;;85.00;66.33;;;;;9.90;64.07;99943.16;5093779;27;8882;-78
2023/01/14 10:49:27;;;;;;;;;83.67;64.67;;;;;10.12;62.52;99942.47;5133715;27;9096;-79
2023/01/14 10:51:57;;;;;;;;;62.00;50.67;;;;;9.76;65.10;99937.81;5126418;27;9014;-78
2023/01/14 10:54:27;;;;;;;;;83.00;63.67;;;;;10.13;63.34;99925.97;5111440;27;8938;-83
2023/01/14 10:56:57;;;;;;;;;81.67;65.00;;;;;10.64;62.19;99933.25;5112350;27;8882;-79
2023/01/14 10:59:36;;;;;;;;;83.33;62.33;;;;;10.45;63.19;99930.56;5114849;27;8991;-78
2023/01/14 11:02:06;;;;;;;;;83.33;66.33;;;;;10.75;61.53;99936.81;5125875;27;9099;-79
2023/01/14 11:04:51;;;;;;;;;91.33;69.67;;;;;9.79;64.50;99934.38;5088530;27;9103;-78
2023/01/14 11:07:27;;;;;;;;;80.33;63.67;;;;;9.78;65.65;99932.63;5060253;27;9209;-79
2023/01/14 11:10:00;;;;;;;;;83.67;65.00;;;;;10.35;63.53;99936.56;5113217;27;9224;-79
2023/01/14 11:12:32;;;;;;;;;87.67;67.67;;;;;10.00;63.68;99934.56;5111231;27;8953;-81
2023/01/14 11:15:01;;;;;;;;;86.00;68.33;;;;;9.80;64.74;99938.72;5109277;27;9394;-77
2023/01/14 11:17:31;;;;;;;;;87.33;67.67;;;;;9.66;66.35;99941.19;5111134;28;9219;-80
2023/01/14 11:20:24;;;;;;;;;89.67;70.33;;;;;9.73;65.11;99928.25;5054117;28;9189;-77
2023/01/14 11:22:59;;;;;;;;;86.50;68.75;;;;;9.59;65.94;99932.47;5104434;28;9270;-77
2023/01/14 11:25:29;;;;;;;;;89.25;68.75;;;;;9.76;65.51;99930.00;5099002;28;9559;-75
2023/01/14 11:28:07;;;;;;;;;91.00;73.33;;;;;9.54;66.04;99932.41;5096588;27;9492;-76
2023/01/14 11:30:36;;;;;;;;;88.75;70.00;;;;;8.87;69.08;99940.34;5095898;28;9341;-80
2023/01/14 11:33:05;;;;;;;;;91.75;72.25;;;;;8.58;69.99;99932.13;5104816;27;9559;-77
2023/01/14 11:35:35;;;;;;;;;94.50;69.25;;;;;8.45;71.51;99940.59;5105354;28;10428;-80
2023/01/14 11:38:06;;;;;;;;;94.75;75.75;;;;;8.49;71.24;99938.09;5106353;28;9559;-81
2023/01/14 11:43:25;;;;;;;;;99.25;81.00;;;;;8.67;70.64;99926.19;5074968;28;10730;-78
2023/01/14 11:46:05;;;;;;;;;92.25;73.00;;;;;8.63;71.10;99935.69;5109242;28;10205;-79
2023/01/14 11:48:34;;;;;;;;;96.75;79.50;;;;;8.60;71.17;99938.25;5067694;27;10261;-77
2023/01/14 11:51:05;;;;;;;;;101.50;82.75;;;;;8.49;72.38;99925.09;5116964;27;10201;-78
2023/01/14 11:53:47;;;;;;;;;100.50;85.00;;;;;8.20;73.20;99932.41;5117599;27;10097;-78
2023/01/14 11:56:19;;;;;;;;;96.25;77.00;;;;;8.22;73.44;99933.31;5127236;27;9852;-79
2023/01/14 11:58:47;;;;;;;;;95.00;76.00;;;;;8.69;71.75;99919.28;5111089;27;11093;-79
2023/01/14 12:01:26;;;;;;;;;103.00;87.50;;;;;8.58;71.86;99926.94;5142062;27;10101;-75
2023/01/14 12:04:03;;;;;;;;;100.75;86.00;;;;;9.05;69.82;99925.78;5112308;27;10830;-78
2023/01/14 12:06:40;;;;;;;;;98.00;81.50;;;;;8.94;70.91;99926.56;5097216;27;10143;-81
2023/01/14 12:09:17;;;;;;;;;101.75;90.25;;;;;8.57;72.21;99926.06;5119269;27;10778;-78
2023/01/14 12:11:53;;;;;;;;;97.25;75.50;;;;;8.52;72.68;99927.72;5128261;27;10385;-78
2023/01/14 12:17:28;;;;;;;;;96.50;76.00;;;;;8.51;73.02;99933.78;5123500;27;10231;-80
2023/01/14 12:20:02;;;;;;;;;96.00;77.00;;;;;8.43;73.52;99937.13;5132474;27;10197;-79
2023/01/14 12:22:39;;;;;;;;;97.25;79.50;;;;;8.22;74.14;99928.13;5079053;27;9957;-76
2023/01/14 12:25:24;;;;;;;;;108.00;94.50;;;;;8.26;74.69;99924.75;5095457;27;10524;-79